• Join FlightAware (Why Join?)
  • Login
  • US Flag 
09:09AM EDT


 

Airport Tracker/Info


-or-


 

Live Flight TrackerFlight Track Log ✈ DAL1515 ✈ 04-Jul-2013 ✈ KATL - KALB

Flight Track Log - Related Links

Times and Time Zones

All times are in EDT time to prevent confusion due to time zone crossing. See the DAL1515 flight status page for this flight to view local times or setup timezone preferences in your user account.

Time Position Orientation Groundspeed Altitude Reporting Facility
EDT Latitude Longitude Course Direction KTS MPH feet Rate Location/Type
08:16PM 33.6478 -84.3756 North 444 511 2,300  Level Atlanta Center
08:17PM 33.6625 -84.2908 78° East 333 383 4,800 2,700 Climbing Atlanta Center
08:18PM 33.7106 -84.2186 51° Northeast 284 327 7,700 2,820 Climbing Atlanta Center
08:19PM 33.8543 -84.1876 320° Northwest  Level FlightAware Approximate
08:19PM 33.8025 -84.2314 353° North 332 382 10,500  Level Atlanta Center
08:20PM 33.9610 -84.2667 North  Level FlightAware Approximate
08:20PM 33.8964 -84.2617 345° North 351 404 13,000  Level Atlanta Center
08:21PM 34.0914 -84.2667 North  Level FlightAware Approximate
08:21PM 33.9819 -84.2767 352° North 356 410 14,800  Level Atlanta Center
08:22PM 34.2218 -84.2667 North  Level FlightAware Approximate
08:22PM 34.0944 -84.2797 359° North 366 421 15,800  Level Atlanta Center
08:23PM 34.2344 -84.2800 360° North 440 506 17,400 1,560 Climbing Atlanta Center
08:24PM 34.3639 -84.2603 North 457 526 19,000 1,680 Climbing Atlanta Center
08:25PM 34.4953 -84.2303 11° North 472 543 20,800 1,560 Climbing Atlanta Center
08:26PM 34.6289 -84.1978 11° North 477 549 22,200 1,200 Climbing Atlanta Center
08:27PM 34.7481 -84.1728 10° North 483 556 23,300 1,200 Climbing Atlanta Center
08:28PM 34.8858 -84.1375 12° North 489 563 24,600 1,440 Climbing Atlanta Center
08:29PM 35.0256 -84.1047 11° North 495 570 26,200 1,620 Climbing Atlanta Center
08:30PM 35.1611 -84.0717 11° North 500 575 27,900 1,560 Climbing Atlanta Center
08:31PM 35.2947 -84.0414 10° North 500 575 29,400 1,260 Climbing Atlanta Center
08:32PM 35.4283 -84.0081 11° North 495 570 30,500 780 Climbing Atlanta Center
08:33PM 35.5617 -83.9775 11° North 485 558 31,000 240 Climbing Atlanta Center
08:34PM 35.6994 -83.9442 11° North 490 564 31,000  Level Atlanta Center
08:35PM 35.8331 -83.9106 12° North 490 564 31,000  Level Atlanta Center
08:36PM 35.9622 -83.8567 19° North 485 558 31,000  Level Atlanta Center
08:38PM 36.1567 -83.7322 27° Northeast 490 564 31,000  Level Indianapolis Center
08:39PM 36.2764 -83.6547 28° Northeast 488 562 31,000  Level Indianapolis Center
08:40PM 36.3972 -83.5778 27° Northeast 489 563 31,000  Level Indianapolis Center
08:41PM 36.5203 -83.5000 27° Northeast 489 563 31,000  Level Indianapolis Center
08:42PM 36.6414 -83.4194 28° Northeast 490 564 31,000  Level Indianapolis Center
08:43PM 36.7492 -83.3192 37° Northeast 481 554 31,000  Level Indianapolis Center
08:44PM 36.8567 -83.2167 37° Northeast 482 555 31,000  Level Indianapolis Center
08:45PM 36.9667 -83.1150 36° Northeast 483 556 31,000  Level Indianapolis Center
08:46PM 37.0783 -83.0106 37° Northeast 489 563 31,000  Level Indianapolis Center
08:47PM 37.1864 -82.9058 38° Northeast 485 558 31,000  Level Indianapolis Center
08:48PM 37.2950 -82.8028 37° Northeast 484 557 31,000  Level Indianapolis Center
08:49PM 37.4047 -82.6981 37° Northeast 489 563 31,000  Level Indianapolis Center
08:50PM 37.5133 -82.5928 38° Northeast 490 564 31,000  Level Indianapolis Center
08:51PM 37.6222 -82.4903 37° Northeast 487 560 31,000  Level Indianapolis Center
08:52PM 37.7289 -82.3842 38° Northeast 487 560 31,000  Level Indianapolis Center
08:53PM 37.8367 -82.2794 37° Northeast 487 560 31,000  Level Indianapolis Center
08:54PM 37.9450 -82.1744 37° Northeast 488 562 31,000  Level Indianapolis Center
08:55PM 38.0536 -82.0683 38° Northeast 484 557 31,000  Level Indianapolis Center
08:56PM 38.1586 -81.9625 38° Northeast 481 554 31,000  Level Indianapolis Center
08:57PM 38.2639 -81.8578 38° Northeast 481 554 31,000  Level Indianapolis Center
08:58PM 38.3661 -81.7506 39° Northeast 478 550 31,000  Level Indianapolis Center
08:59PM 38.4539 -81.6247 48° Northeast 479 551 31,000  Level Indianapolis Center
09:00PM 38.5400 -81.4978 49° Northeast 478 550 31,000  Level Indianapolis Center
09:01PM 38.6258 -81.3714 49° Northeast 482 555 31,000  Level Indianapolis Center
09:02PM 38.7133 -81.2489 48° Northeast 473 544 31,000  Level Indianapolis Center
09:03PM 38.8189 -81.0950 49° Northeast 480 552 31,000  Level Indianapolis Center
09:04PM 38.9075 -80.9664 48° Northeast 483 556 31,000  Level Indianapolis Center
09:05PM 38.9964 -80.8361 49° Northeast 484 557 31,000  Level Indianapolis Center
09:06PM 39.0869 -80.7078 48° Northeast 484 557 31,000  Level Indianapolis Center
09:07PM 39.1794 -80.5817 47° Northeast 484 557 31,000  Level Indianapolis Center
09:08PM 39.2694 -80.4544 48° Northeast 481 554 31,000  Level Indianapolis Center
09:09PM 39.3603 -80.3278 47° Northeast 483 556 31,000  Level Indianapolis Center
09:10PM 39.4511 -80.2003 47° Northeast 482 555 31,000  Level Indianapolis Center
09:11PM 39.5406 -80.0711 48° Northeast 481 554 31,000  Level Indianapolis Center
09:12PM 39.6292 -79.9406 49° Northeast 481 554 31,000  Level Indianapolis Center
09:13PM 39.7167 -79.8103 49° Northeast 478 550 31,000  Level Indianapolis Center
09:14PM 39.8050 -79.6794 49° Northeast 481 554 31,000  Level Indianapolis Center
09:15PM 39.8942 -79.5475 49° Northeast 484 557 31,000  Level Indianapolis Center
09:17PM 40.0189 -79.3658 48° Northeast 473 544 31,000  Level Cleveland Center
09:18PM 40.0928 -79.2506 50° Northeast 461 531 31,000  Level Cleveland Center
09:19PM 40.1786 -79.1183 50° Northeast 466 536 31,000  Level Cleveland Center
09:20PM 40.2644 -78.9886 49° Northeast 466 536 31,000  Level Cleveland Center
09:21PM 40.3500 -78.8558 50° Northeast 466 536 31,000  Level Cleveland Center
09:22PM 40.4378 -78.7253 49° Northeast 466 536 31,000  Level Cleveland Center
09:23PM 40.5253 -78.6000 47° Northeast 466 536 31,000  Level Cleveland Center
09:24PM 40.6083 -78.4717 50° Northeast 466 536 31,000  Level Cleveland Center
09:25PM 40.7361 -78.2733 50° Northeast 476 548 31,000  Level New York Center
09:26PM 40.8214 -78.1428 49° Northeast 471 542 31,000  Level New York Center
09:27PM 40.9028 -78.0086 51° Northeast 471 542 31,000  Level New York Center
09:28PM 40.9897 -77.8775 49° Northeast 471 542 31,000  Level New York Center
09:29PM 41.0786 -77.7492 47° Northeast 471 542 31,000  Level New York Center
09:30PM 41.1650 -77.6258 47° Northeast 466 536 31,000  Level New York Center
09:31PM 41.2628 -77.4839 47° Northeast 471 542 31,000  Level New York Center
09:32PM 41.3492 -77.3542 48° Northeast 466 536 31,000  Level New York Center
09:33PM 41.4378 -77.2244 48° Northeast 466 536 31,000  Level New York Center
09:34PM 41.5172 -77.1017 49° Northeast 477 549 31,000  Level New York Center
09:35PM 41.6053 -76.9714 48° Northeast 477 549 31,000 -600 Level New York Center
09:36PM 41.6911 -76.8406 49° Northeast 477 549 29,900 -1,440 Descending New York Center
09:37PM 41.7792 -76.7067 49° Northeast 477 549 28,200 -1,740 Descending New York Center
09:40PM 42.0161 -76.3528 48° Northeast 493 567 24,000 -1,260 Descending Boston Center
09:41PM 42.1042 -76.2153 49° Northeast 493 567 24,000  Level Boston Center
09:42PM 42.1839 -76.0689 54° Northeast 493 567 24,000  Level Boston Center
09:43PM 42.2411 -75.9039 65° Northeast 488 562 24,000  Level Boston Center
09:44PM 42.2858 -75.7322 71° East 482 555 24,000  Level Boston Center
09:45PM 42.3217 -75.5769 73° East 474 545 24,000  Level Boston Center
09:46PM 42.3658 -75.4047 71° East 474 545 24,000 -180 Level Boston Center
09:47PM 42.4078 -75.2297 72° East 479 551 23,700 -1,200 Descending Boston Center
09:48PM 42.4514 -75.0600 71° East 479 551 21,600 -2,640 Descending Boston Center
09:48PM 42.4792 -74.9428 72° East 472 543 19,400 -2,880 Descending Boston Center
09:49PM 42.5250 -74.7447 73° East 442 509 16,400 -2,640 Descending Boston Center
09:51PM 42.5658 -74.5686 72° East 424 488 13,400 -2,640 Descending Boston Center
09:52PM 42.5667 -74.4164 90° East 406 467 10,800 -1,620 Descending Boston Center
09:53PM 42.5628 -74.2753 92° East 368 423 10,200 -1,080 Descending Boston Center
09:54PM 42.5606 -74.1539 91° East 297 342 8,700 -2,100 Descending Boston Center
09:55PM 42.5581 -74.0383 92° East 300 345 6,000 -2,460 Descending Boston Center
09:56PM 42.5553 -73.9283 92° East 296 341 3,800 -1,500 Descending Boston Center
09:57PM 42.5544 -73.8381 91° East 255 293 3,100 -360 Descending Boston Center
09:58PM 42.5842 -73.7908 49° Northeast 170 196 3,100  Level Boston Center